Time;durP1;ratioP1;P1;durP2;ratioP2;P2;SDS_P1;SDS_P2;PMS_P1;PMS_P2;Temp;Humidity;BMP_temperature;BMP_pressure;BME280_temperature;BME280_humidity;BME280_pressure;Samples;Min_cycle;Max_cycle;Signal;HPM_P1;HPM_P2
2023/10/15 00:00:24;;;;;;;5.97;2.30;;;;;;;9.54;100.00;100102.88;5087663;28;20044;-79
2023/10/15 00:02:51;;;;;;;8.93;1.98;;;;;;;9.52;100.00;100102.56;5076843;28;20111;-78
2023/10/15 00:05:25;;;;;;;5.88;1.50;;;;;;;9.54;100.00;100100.03;5095514;28;20519;-79
2023/10/15 00:07:52;;;;;;;9.95;2.05;;;;;;;9.41;100.00;100087.31;5077786;28;20453;-79
2023/10/15 00:10:20;;;;;;;1.98;1.10;;;;;;;9.55;100.00;100112.19;5077198;28;20024;-79
2023/10/15 00:12:51;;;;;;;9.15;1.95;;;;;;;9.57;100.00;100110.44;5077116;28;20036;-79
2023/10/15 00:15:23;;;;;;;3.92;1.48;;;;;;;9.61;100.00;100118.81;5061119;28;20431;-77
2023/10/15 00:17:51;;;;;;;9.18;1.73;;;;;;;9.65;100.00;100108.78;5066907;28;20105;-76
2023/10/15 00:20:21;;;;;;;5.10;1.77;;;;;;;9.73;100.00;100105.56;5095874;28;20028;-78
2023/10/15 00:22:54;;;;;;;8.43;1.33;;;;;;;9.85;100.00;100107.31;5095820;28;20043;-78
2023/10/15 00:25:22;;;;;;;4.63;1.45;;;;;;;9.89;100.00;100100.13;5095888;28;20027;-77
2023/10/15 00:27:56;;;;;;;7.85;1.88;;;;;;;9.82;100.00;100076.94;5095279;28;20092;-77
2023/10/15 00:30:31;;;;;;;3.80;1.42;;;;;;;10.06;100.00;100104.06;5078556;28;20024;-77
2023/10/15 00:32:57;;;;;;;9.18;1.75;;;;;;;10.11;100.00;100102.56;5063315;28;20039;-77
2023/10/15 00:35:25;;;;;;;8.77;1.65;;;;;;;10.14;100.00;100103.66;5097057;28;20028;-79
2023/10/15 00:37:57;;;;;;;4.72;1.33;;;;;;;10.18;100.00;100107.88;5096388;28;20024;-78
2023/10/15 00:40:25;;;;;;;6.53;1.85;;;;;;;10.09;100.00;100088.78;5079194;28;20135;-78
2023/10/15 00:42:51;;;;;;;9.32;2.10;;;;;;;10.24;100.00;100110.81;5045144;28;20131;-80
2023/10/15 00:45:18;;;;;;;2.13;1.52;;;;;;;10.25;100.00;100109.53;5078604;28;20040;-77
2023/10/15 00:50:38;;;;;;;6.28;1.48;;;;;;;10.24;100.00;100111.59;5081591;28;20175;-78
2023/10/15 00:53:25;;;;;;;10.02;1.42;;;;;;;10.24;100.00;100116.53;5079278;28;20028;-79
2023/10/15 00:56:03;;;;;;;4.07;1.25;;;;;;;10.23;100.00;100107.19;5095248;28;20111;-78
2023/10/15 00:58:39;;;;;;;8.23;1.60;;;;;;;10.25;100.00;100109.53;5079248;28;20103;-77
2023/10/15 01:01:23;;;;;;;4.43;1.58;;;;;;;10.27;100.00;100110.63;5059183;28;20083;-79
2023/10/15 01:03:56;;;;;;;4.97;1.65;;;;;;;10.29;100.00;100112.97;5076213;28;20115;-78
2023/10/15 01:06:44;;;;;;;6.47;1.80;;;;;;;10.31;100.00;100118.97;5074553;28;20016;-77
2023/10/15 01:09:28;;;;;;;9.38;1.70;;;;;;;10.28;100.00;100122.84;5075042;28;20108;-78
2023/10/15 01:12:18;;;;;;;5.05;1.42;;;;;;;10.21;100.00;100124.03;5074039;28;20078;-78
2023/10/15 01:14:45;;;;;;;5.57;1.38;;;;;;;10.13;100.00;100120.00;5074725;28;20478;-77
2023/10/15 01:17:11;;;;;;;4.78;1.77;;;;;;;10.06;100.00;100120.41;5075527;28;20024;-78
2023/10/15 01:19:37;;;;;;;1.90;1.40;;;;;;;9.97;100.00;100118.44;5075561;28;20012;-78
2023/10/15 01:22:08;;;;;;;8.02;1.17;;;;;;;9.92;100.00;100119.13;5075718;28;20082;-78
2023/10/15 01:24:37;;;;;;;2.70;1.30;;;;;;;9.84;100.00;100106.53;5076708;28;20024;-80
2023/10/15 01:29:44;;;;;;;5.55;1.17;;;;;;;9.80;100.00;100105.94;5074442;28;20473;-79
2023/10/15 01:32:25;;;;;;;6.57;1.30;;;;;;;9.70;100.00;100101.59;5075066;28;20081;-78
2023/10/15 01:34:53;;;;;;;4.20;0.90;;;;;;;9.76;100.00;100122.47;5076076;28;20024;-78
2023/10/15 01:42:40;;;;;;;4.28;1.20;;;;;;;9.66;100.00;100124.63;5073260;28;20032;-78
2023/10/15 01:50:23;;;;;;;8.93;1.30;;;;;;;9.61;100.00;100133.06;5073703;28;20107;-77
2023/10/15 01:53:00;;;;;;;9.85;1.40;;;;;;;9.60;100.00;100134.34;5058266;28;20031;-79
2023/10/15 01:55:37;;;;;;;5.38;1.05;;;;;;;9.56;100.00;100130.91;5071685;28;20037;-78
2023/10/15 01:58:05;;;;;;;3.53;0.82;;;;;;;9.52;100.00;100133.94;5072965;28;20032;-78
2023/10/15 02:00:50;;;;;;;3.72;0.98;;;;;;;9.47;100.00;100126.06;5070826;28;20052;-78
2023/10/15 02:03:31;;;;;;;2.92;1.00;;;;;;;9.41;100.00;100138.66;5071075;28;20491;-80
2023/10/15 02:06:04;;;;;;;5.57;1.20;;;;;;;9.41;100.00;100130.88;5071801;28;20028;-77
2023/10/15 02:08:39;;;;;;;3.03;1.02;;;;;;;9.37;100.00;100129.50;5056120;28;20028;-79
2023/10/15 02:11:16;;;;;;;6.82;1.65;;;;;;;9.34;100.00;100127.63;5071690;28;20048;-79
2023/10/15 02:13:45;;;;;;;2.58;1.05;;;;;;;9.27;100.00;100125.94;5071545;28;20035;-77
2023/10/15 02:16:25;;;;;;;3.00;1.13;;;;;;;9.27;100.00;100134.50;5072536;28;20063;-78
2023/10/15 02:18:51;;;;;;;6.95;0.95;;;;;;;9.23;100.00;100139.59;5057346;28;20024;-78
2023/10/15 02:21:17;;;;;;;4.93;1.02;;;;;;;9.23;100.00;100133.91;5072202;28;20040;-79
2023/10/15 02:23:52;;;;;;;7.90;2.45;;;;;;;9.21;100.00;100139.28;5072687;28;20082;-77
2023/10/15 02:26:18;;;;;;;3.75;0.73;;;;;;;9.20;100.00;100132.78;5073296;28;20055;-78
2023/10/15 02:28:47;;;;;;;8.35;1.00;;;;;;;9.18;100.00;100128.88;5073379;28;20110;-78
2023/10/15 02:33:47;;;;;;;5.95;1.02;;;;;;;9.13;100.00;100132.41;5075850;28;20040;-79
2023/10/15 02:36:23;;;;;;;8.70;1.08;;;;;;;9.10;100.00;100124.84;5078564;28;20155;-82
2023/10/15 02:38:53;;;;;;;2.97;0.95;;;;;;;9.02;100.00;100132.94;5081581;28;20035;-78
2023/10/15 02:41:20;;;;;;;5.35;1.42;;;;;;;9.01;100.00;100137.06;5074023;28;20051;-79
2023/10/15 02:43:54;;;;;;;1.92;1.10;;;;;;;9.01;100.00;100142.78;5073671;28;20036;-78
2023/10/15 02:48:49;;;;;;;8.38;1.10;;;;;;;8.96;100.00;100151.19;5074538;28;20110;-79
2023/10/15 02:51:23;;;;;;;9.60;1.10;;;;;;;8.90;100.00;100151.09;5072710;28;20036;-76
2023/10/15 02:53:52;;;;;;;8.63;2.03;;;;;;;8.89;100.00;100148.72;5074716;28;20046;-78
2023/10/15 02:56:28;;;;;;;3.80;1.00;;;;;;;8.87;100.00;100149.22;5073911;28;20078;-78
2023/10/15 02:58:54;;;;;;;4.68;1.65;;;;;;;8.84;100.00;100150.19;5075208;28;20020;-78
2023/10/15 03:01:20;;;;;;;7.70;1.38;;;;;;;8.82;100.00;100149.88;5094580;28;20085;-79
2023/10/15 03:03:50;;;;;;;7.85;0.82;;;;;;;8.79;100.00;100160.19;5091937;28;20115;-81
2023/10/15 03:06:28;;;;;;;4.38;1.73;;;;;;;8.75;100.00;100161.66;5093953;28;20035;-78
2023/10/15 03:08:56;;;;;;;5.93;1.15;;;;;;;8.70;100.00;100154.56;5061760;28;20040;-78
2023/10/15 03:11:33;;;;;;;6.05;1.08;;;;;;;8.66;100.00;100153.13;5076957;28;20437;-78
2023/10/15 03:14:01;;;;;;;5.35;1.00;;;;;;;8.65;100.00;100154.44;5094420;28;20419;-78
2023/10/15 03:16:30;;;;;;;3.28;0.75;;;;;;;8.61;100.00;100157.44;5075678;28;20125;-78
2023/10/15 03:19:00;;;;;;;3.95;1.38;;;;;;;8.61;100.00;100165.19;5075283;28;20274;-79
2023/10/15 03:21:40;;;;;;;7.93;1.40;;;;;;;8.57;100.00;100165.38;5093872;28;20090;-78
2023/10/15 03:24:07;;;;;;;3.70;1.30;;;;;;;8.49;100.00;100151.97;5091829;28;20058;-77
2023/10/15 03:26:36;;;;;;;4.38;1.25;;;;;;;8.47;100.00;100158.13;5058845;28;20111;-77
2023/10/15 03:29:24;;;;;;;8.25;1.73;;;;;;;8.44;100.00;100167.66;5075198;28;20044;-78
2023/10/15 03:31:54;;;;;;;4.07;0.88;;;;;;;8.42;100.00;100164.50;5077943;28;20044;-78
2023/10/15 03:34:25;;;;;;;6.97;1.30;;;;;;;8.35;100.00;100168.50;5076563;28;20051;-78
2023/10/15 03:36:57;;;;;;;3.75;1.20;;;;;;;8.35;100.00;100164.84;5076223;28;20469;-78
2023/10/15 03:39:25;;;;;;;5.07;0.80;;;;;;;8.31;100.00;100167.84;5093384;28;20024;-78
2023/10/15 03:42:18;;;;;;;3.25;1.33;;;;;;;8.29;100.00;100173.25;5074697;28;20043;-80
2023/10/15 03:44:49;;;;;;;3.22;1.05;;;;;;;8.28;100.00;100174.53;5093541;28;20020;-78
2023/10/15 03:47:17;;;;;;;5.20;0.82;;;;;;;8.29;100.00;100181.78;5093743;28;20074;-78
2023/10/15 03:49:46;;;;;;;2.58;1.30;;;;;;;8.30;100.00;100174.84;5093347;28;20034;-79
2023/10/15 03:52:20;;;;;;;5.25;1.48;;;;;;;8.29;100.00;100169.63;5091332;28;20347;-78
2023/10/15 03:54:50;;;;;;;4.43;1.35;;;;;;;8.26;100.00;100177.03;5093557;28;20028;-78
2023/10/15 03:57:27;;;;;;;3.30;1.15;;;;;;;8.25;100.00;100178.34;5093326;28;20028;-76
2023/10/15 03:59:55;;;;;;;9.10;1.15;;;;;;;8.24;100.00;100179.59;5071738;28;20049;-79
2023/10/15 04:05:14;;;;;;;6.38;0.93;;;;;;;8.22;100.00;100167.09;5073663;28;20039;-78
2023/10/15 04:07:48;;;;;;;9.10;1.38;;;;;;;8.19;100.00;100165.22;5073296;28;20165;-81
2023/10/15 04:10:15;;;;;;;4.90;1.30;;;;;;;8.16;100.00;100169.03;5073264;28;20082;-78
2023/10/15 04:12:45;;;;;;;4.03;1.05;;;;;;;8.14;100.00;100160.16;5072190;28;20036;-78
2023/10/15 04:15:17;;;;;;;2.28;1.25;;;;;;;7.97;100.00;100139.81;5072147;28;20028;-78
2023/10/15 04:17:52;;;;;;;5.70;1.65;;;;;;;8.10;100.00;100162.38;5073173;28;20020;-77
2023/10/15 04:20:28;;;;;;;6.07;1.60;;;;;;;8.05;100.00;100163.03;5072785;28;20046;-79
2023/10/15 04:23:02;;;;;;;4.20;1.38;;;;;;;8.03;100.00;100148.47;5072038;28;20032;-77
2023/10/15 04:25:47;;;;;;;4.13;1.23;;;;;;;8.04;100.00;100161.44;5071622;28;20205;-78
2023/10/15 04:28:14;;;;;;;9.32;1.48;;;;;;;7.96;100.00;100150.41;5073139;28;20028;-78
2023/10/15 04:30:40;;;;;;;8.32;1.15;;;;;;;7.96;100.00;100158.94;5073834;28;20032;-78
2023/10/15 04:33:19;;;;;;;5.47;1.13;;;;;;;7.94;100.00;100158.63;5059218;28;20033;-80
2023/10/15 04:35:48;;;;;;;9.90;1.30;;;;;;;7.93;100.00;100150.56;5060919;28;20390;-77
2023/10/15 04:38:21;;;;;;;3.78;1.30;;;;;;;7.91;100.00;100153.13;5076992;28;20032;-77
2023/10/15 04:41:10;;;;;;;7.38;1.08;;;;;;;7.89;100.00;100153.59;5075830;28;20032;-78
2023/10/15 04:43:46;;;;;;;7.15;1.30;;;;;;;7.87;100.00;100149.63;5075065;28;20512;-78
2023/10/15 04:46:19;;;;;;;6.72;1.00;;;;;;;7.86;100.00;100143.19;5076467;28;20158;-80
2023/10/15 04:48:50;;;;;;;4.18;1.00;;;;;;;7.81;100.00;100137.34;5076536;28;20032;-80
2023/10/15 04:51:17;;;;;;;12.13;3.10;;;;;;;7.80;100.00;100147.16;5074789;28;20036;-78
2023/10/15 04:53:50;;;;;;;5.93;2.13;;;;;;;7.78;100.00;100146.81;5074682;28;20619;-77
2023/10/15 04:56:16;;;;;;;6.35;2.63;;;;;;;7.77;100.00;100151.72;5076218;28;20055;-77
2023/10/15 04:58:42;;;;;;;4.43;1.40;;;;;;;7.74;100.00;100152.69;5076208;28;20465;-79
2023/10/15 05:01:08;;;;;;;9.10;1.27;;;;;;;7.71;100.00;100161.38;5074249;28;20513;-78
2023/10/15 05:03:38;;;;;;;6.18;1.40;;;;;;;7.68;100.00;100156.63;5057890;28;20457;-78
2023/10/15 05:06:12;;;;;;;7.57;1.10;;;;;;;7.69;100.00;100161.06;5074665;28;20036;-78
2023/10/15 05:08:40;;;;;;;3.42;1.27;;;;;;;7.68;100.00;100168.00;5074692;28;20040;-78
2023/10/15 05:11:10;;;;;;;3.88;1.10;;;;;;;7.67;100.00;100160.75;5074644;28;20032;-77
2023/10/15 05:13:36;;;;;;;4.32;1.05;;;;;;;7.62;100.00;100165.00;5075589;28;20036;-78
2023/10/15 05:16:03;;;;;;;7.53;1.38;;;;;;;7.65;100.00;100169.75;5076221;28;20035;-77
2023/10/15 05:18:37;;;;;;;4.38;1.35;;;;;;;7.67;100.00;100172.91;5076017;28;20028;-78
2023/10/15 05:21:04;;;;;;;6.43;1.17;;;;;;;7.67;100.00;100177.84;5076055;28;20032;-78
2023/10/15 05:23:30;;;;;;;6.38;1.20;;;;;;;7.66;100.00;100176.25;5075538;28;20377;-79
2023/10/15 05:25:57;;;;;;;7.97;1.05;;;;;;;7.66;100.00;100179.09;5075504;28;20094;-79
2023/10/15 05:28:23;;;;;;;10.07;1.73;;;;;;;7.65;100.00;100174.66;5057173;28;20478;-79
2023/10/15 05:30:51;;;;;;;5.07;1.33;;;;;;;7.65;100.00;100174.66;5073671;28;20116;-80
2023/10/15 05:33:18;;;;;;;6.05;1.00;;;;;;;7.61;100.00;100186.19;5075537;28;20020;-78
2023/10/15 05:35:49;;;;;;;12.07;1.70;;;;;;;7.61;100.00;100194.72;5057579;28;20028;-79
2023/10/15 05:38:29;;;;;;;9.02;1.23;;;;;;;7.58;100.00;100192.81;5074341;28;20075;-78
2023/10/15 05:40:59;;;;;;;7.80;1.45;;;;;;;7.57;100.00;100187.63;5075204;28;20060;-79
2023/10/15 05:43:25;;;;;;;8.00;2.13;;;;;;;7.57;100.00;100191.25;5074506;28;20032;-80
2023/10/15 05:45:52;;;;;;;5.78;1.27;;;;;;;7.59;100.00;100199.31;5073546;28;20115;-79
2023/10/15 05:48:18;;;;;;;11.85;2.13;;;;;;;7.61;100.00;100193.94;5074023;28;20098;-77
2023/10/15 05:50:53;;;;;;;7.05;1.83;;;;;;;7.65;100.00;100191.72;5075284;28;20024;-80
2023/10/15 05:53:19;;;;;;;5.05;1.02;;;;;;;7.68;100.00;100187.91;5074383;28;20081;-80
2023/10/15 05:55:45;;;;;;;7.45;1.85;;;;;;;7.72;100.00;100195.03;5073953;28;20474;-75
2023/10/15 05:58:12;;;;;;;7.03;2.03;;;;;;;7.76;100.00;100195.66;5072959;28;20185;-75
2023/10/15 06:00:40;;;;;;;5.65;1.25;;;;;;;7.80;100.00;100199.13;5071968;28;20390;-76
2023/10/15 06:03:11;;;;;;;11.25;1.40;;;;;;;7.85;100.00;100209.06;5071306;28;20063;-75
2023/10/15 06:05:39;;;;;;;5.28;1.70;;;;;;;7.89;100.00;100201.97;5057398;28;20119;-76
2023/10/15 06:08:05;;;;;;;8.43;1.20;;;;;;;7.94;100.00;100209.06;5073624;28;20069;-77
2023/10/15 06:10:32;;;;;;;11.30;1.50;;;;;;;8.01;100.00;100207.94;5056661;28;20110;-78
2023/10/15 06:13:00;;;;;;;2.67;1.00;;;;;;;8.05;100.00;100211.41;5073996;28;20128;-78
2023/10/15 06:15:26;;;;;;;4.20;1.27;;;;;;;8.12;100.00;100209.00;5073468;28;20134;-77
2023/10/15 06:17:53;;;;;;;7.18;1.15;;;;;;;8.21;100.00;100216.78;5040080;28;20056;-77
2023/10/15 06:20:24;;;;;;;6.88;1.98;;;;;;;8.27;100.00;100215.63;5074839;28;20423;-77
2023/10/15 06:22:55;;;;;;;;;;;;;;;8.33;100.00;100216.56;5073779;28;20032;-77
2023/10/15 06:25:23;;;;;;;5.28;2.25;;;;;;;8.40;100.00;100218.28;5073705;28;19916;-78
2023/10/15 06:27:53;;;;;;;6.40;1.70;;;;;;;8.34;100.00;100198.22;5056664;28;20124;-77
2023/10/15 06:30:33;;;;;;;5.95;1.30;;;;;;;8.58;100.00;100220.28;5073148;28;20045;-75
2023/10/15 06:33:03;;;;;;;7.25;1.42;;;;;;;8.63;100.00;100225.31;5072749;28;20035;-75
2023/10/15 06:35:30;;;;;;;4.72;2.88;;;;;;;8.74;100.00;100219.88;5073102;28;20044;-75
2023/10/15 06:38:00;;;;;;;9.45;1.85;;;;;;;8.82;100.00;100223.94;5074239;28;20035;-76
2023/10/15 06:40:32;;;;;;;6.30;1.65;;;;;;;8.90;100.00;100228.03;5074491;28;20425;-76
2023/10/15 06:43:03;;;;;;;18.45;2.22;;;;;;;8.96;100.00;100228.13;5073751;28;20107;-76
2023/10/15 06:45:33;;;;;;;6.43;1.50;;;;;;;9.04;100.00;100229.38;5074780;28;20032;-74
2023/10/15 06:48:01;;;;;;;6.53;1.42;;;;;;;9.06;100.00;100233.31;5075336;28;20561;-76
2023/10/15 06:50:28;;;;;;;4.90;1.88;;;;;;;9.17;100.00;100229.91;5076202;28;20110;-76
2023/10/15 06:52:55;;;;;;;8.60;1.40;;;;;;;9.30;100.00;100233.31;5074419;28;20047;-77
2023/10/15 06:55:22;;;;;;;10.65;1.42;;;;;;;9.37;100.00;100232.94;5074629;28;20044;-79
2023/10/15 06:57:50;;;;;;;9.82;1.48;;;;;;;9.54;100.00;100230.44;5072792;28;20056;-75
2023/10/15 07:00:23;;;;;;;4.57;1.33;;;;;;;9.70;100.00;100242.19;5072094;28;20075;-76
2023/10/15 07:02:53;;;;;;;5.53;1.48;;;;;;;10.29;100.00;100241.47;5056834;28;20115;-77
2023/10/15 07:05:23;;;;;;;8.05;1.38;;;;;;;11.20;100.00;100255.44;5073896;28;20031;-75
2023/10/15 07:07:49;;;;;;;6.53;1.25;;;;;;;11.96;100.00;100256.13;5071842;28;20028;-75
2023/10/15 07:10:16;;;;;;;9.05;1.23;;;;;;;12.77;100.00;100237.91;5071824;28;20025;-77
2023/10/15 07:12:50;;;;;;;7.63;2.08;;;;;;;13.32;100.00;100229.66;5071935;28;20033;-77
2023/10/15 07:15:17;;;;;;;6.20;1.20;;;;;;;13.78;100.00;100219.97;5071841;28;20445;-76
2023/10/15 07:17:44;;;;;;;4.53;1.00;;;;;;;14.20;100.00;100221.88;5071918;28;20036;-76
2023/10/15 07:20:24;;;;;;;4.90;0.75;;;;;;;14.52;100.00;100222.44;5072483;28;20054;-75
2023/10/15 07:23:05;;;;;;;3.75;1.02;;;;;;;14.69;100.00;100218.25;5070128;28;20068;-77
2023/10/15 07:25:35;;;;;;;6.65;1.10;;;;;;;15.04;100.00;100232.09;5073260;28;20469;-75
2023/10/15 07:28:01;;;;;;;5.50;1.20;;;;;;;15.28;100.00;100217.88;5055843;28;20048;-75
2023/10/15 07:30:27;;;;;;;5.75;1.38;;;;;;;15.49;100.00;100231.97;5071555;28;20090;-75
2023/10/15 07:32:57;;;;;;;9.10;1.45;;;;;;;15.59;100.00;100228.28;5073096;28;20024;-77
2023/10/15 07:35:25;;;;;;;5.15;1.33;;;;;;;15.88;100.00;100223.97;5053396;28;20047;-77
2023/10/15 07:37:51;;;;;;;5.38;1.25;;;;;;;16.09;100.00;100219.38;5071828;28;20036;-76
2023/10/15 07:40:25;;;;;;;5.38;1.23;;;;;;;16.13;98.49;100219.88;5071933;28;20033;-79
2023/10/15 07:43:08;;;;;;;4.75;1.48;;;;;;;16.34;98.69;100216.59;5073932;28;20040;-79
2023/10/15 07:45:38;;;;;;;7.30;1.20;;;;;;;16.38;93.92;100222.84;5074097;28;20034;-79
2023/10/15 07:48:07;;;;;;;7.65;1.67;;;;;;;16.46;97.36;100227.50;5072449;28;20031;-77
2023/10/15 07:50:34;;;;;;;4.30;1.00;;;;;;;16.53;94.63;100226.16;5071710;28;20036;-76
2023/10/15 07:53:02;;;;;;;9.55;1.70;;;;;;;16.36;89.17;100222.59;5072123;28;20093;-76
2023/10/15 07:55:31;;;;;;;6.15;1.95;;;;;;;16.27;91.70;100226.59;5071531;28;20024;-76
2023/10/15 07:57:57;;;;;;;3.75;1.15;;;;;;;16.34;94.10;100237.56;5062086;28;20045;-78
2023/10/15 08:00:23;;;;;;;6.65;1.67;;;;;;;16.28;92.24;100219.50;5071436;28;20102;-79
2023/10/15 08:02:57;;;;;;;6.13;1.13;;;;;;;16.12;90.71;100229.06;5072202;28;20045;-80
2023/10/15 08:05:46;;;;;;;6.53;1.15;;;;;;;15.98;92.48;100236.75;5075388;28;20063;-78
2023/10/15 08:08:11;;;;;;;7.85;2.10;;;;;;;15.89;92.83;100236.28;5075815;28;20139;-79
2023/10/15 08:10:37;;;;;;;5.78;1.67;;;;;;;15.98;96.16;100230.19;5075872;28;20503;-77
2023/10/15 08:13:04;;;;;;;5.28;1.15;;;;;;;15.91;94.66;100230.78;5076594;28;20026;-77
2023/10/15 08:15:33;;;;;;;6.93;1.67;;;;;;;15.61;92.46;100211.25;5076620;28;20367;-76
2023/10/15 08:17:58;;;;;;;7.50;1.45;;;;;;;15.81;92.14;100246.81;5075456;28;20024;-79
2023/10/15 08:20:27;;;;;;;7.55;1.10;;;;;;;15.84;94.60;100237.88;5074290;28;20048;-78
2023/10/15 08:23:02;;;;;;;6.57;1.40;;;;;;;15.83;95.31;100235.50;5074760;28;20032;-78
2023/10/15 08:25:28;;;;;;;3.90;1.20;;;;;;;15.97;95.58;100238.06;5075434;28;20555;-78
2023/10/15 08:27:55;;;;;;;3.20;1.10;;;;;;;16.19;98.69;100242.91;5076510;28;20024;-79
2023/10/15 08:30:21;;;;;;;10.25;1.50;;;;;;;16.11;91.34;100239.00;5076416;28;20028;-79
2023/10/15 08:32:47;;;;;;;3.83;1.30;;;;;;;16.03;92.23;100238.81;5075016;28;20039;-77
2023/10/15 08:35:14;;;;;;;6.90;1.52;;;;;;;16.04;95.59;100251.13;5075206;28;20028;-79
2023/10/15 08:37:43;;;;;;;7.18;1.65;;;;;;;15.94;92.76;100239.13;5058371;28;20028;-79
2023/10/15 08:40:18;;;;;;;6.03;1.35;;;;;;;15.90;96.75;100250.16;5076491;28;20060;-78
2023/10/15 08:43:15;;;;;;;9.02;1.25;;;;;;;15.74;94.66;100245.25;5059974;28;20040;-76
2023/10/15 08:45:45;;;;;;;4.78;1.15;;;;;;;15.70;96.73;100250.50;5041533;28;20493;-77
2023/10/15 08:48:14;;;;;;;3.53;1.00;;;;;;;15.64;93.77;100244.75;5074418;28;20116;-78
2023/10/15 08:50:43;;;;;;;5.45;1.17;;;;;;;15.47;96.64;100246.88;5075361;28;20032;-80
2023/10/15 08:53:09;;;;;;;6.72;1.33;;;;;;;15.24;94.83;100231.78;5073663;28;20025;-77
2023/10/15 08:55:36;;;;;;;4.93;1.08;;;;;;;15.09;95.14;100239.13;5040681;28;20073;-79
2023/10/15 08:58:01;;;;;;;2.88;0.88;;;;;;;15.05;96.20;100258.78;5075129;28;20060;-78
2023/10/15 09:00:31;;;;;;;7.38;1.25;;;;;;;14.98;99.51;100251.44;5073567;28;20214;-79
2023/10/15 09:03:00;;;;;;;5.15;1.20;;;;;;;15.01;100.00;100233.16;5074738;28;20097;-77
2023/10/15 09:05:33;;;;;;;6.63;1.50;;;;;;;15.02;96.23;100251.19;5075287;28;20086;-77
2023/10/15 09:08:16;;;;;;;9.10;1.30;;;;;;;14.97;96.16;100247.00;5075167;28;20113;-78
2023/10/15 09:10:45;;;;;;;4.10;1.02;;;;;;;14.81;96.33;100224.78;5074661;28;20032;-80
2023/10/15 09:13:18;;;;;;;6.80;1.77;;;;;;;14.74;96.39;100239.69;5075153;28;20492;-79
2023/10/15 09:15:45;;;;;;;9.18;1.17;;;;;;;14.58;100.00;100234.69;5074806;28;20362;-77
2023/10/15 09:18:15;;;;;;;6.13;1.20;;;;;;;14.58;100.00;100257.69;5075472;28;20032;-78
2023/10/15 09:20:50;;;;;;;10.75;1.13;;;;;;;14.50;100.00;100222.16;5075385;28;20491;-78
2023/10/15 09:23:21;;;;;;;9.02;1.30;;;;;;;14.41;98.74;100237.59;5075489;28;20611;-76
2023/10/15 09:25:52;;;;;;;5.22;1.30;;;;;;;14.34;99.49;100241.75;5078120;28;20028;-79
2023/10/15 09:28:17;;;;;;;8.65;1.83;;;;;;;14.30;100.00;100237.56;5094555;28;20073;-79
2023/10/15 09:30:46;;;;;;;6.25;1.20;;;;;;;14.49;100.00;100243.59;5095470;28;20028;-78
2023/10/15 09:33:13;;;;;;;5.18;1.33;;;;;;;14.61;100.00;100240.25;5079323;28;20024;-79
2023/10/15 09:35:41;;;;;;;3.42;1.02;;;;;;;14.74;100.00;100242.56;5094938;28;20024;-79
2023/10/15 09:38:10;;;;;;;6.03;1.33;;;;;;;14.77;98.26;100244.44;5096019;28;20051;-78
2023/10/15 09:40:38;;;;;;;6.38;1.42;;;;;;;14.57;98.22;100236.81;5095550;28;20149;-79
2023/10/15 09:43:04;;;;;;;6.90;1.48;;;;;;;14.30;98.71;100228.94;5094759;28;20141;-78
2023/10/15 09:45:32;;;;;;;6.95;1.50;;;;;;;14.13;100.00;100237.56;5095241;28;20469;-78
2023/10/15 09:47:57;;;;;;;6.43;1.48;;;;;;;14.02;100.00;100228.91;5096081;28;20024;-79
2023/10/15 09:50:32;;;;;;;6.03;1.83;;;;;;;14.19;100.00;100238.31;5095741;28;20024;-79
2023/10/15 09:53:09;;;;;;;6.13;1.30;;;;;;;14.34;100.00;100235.22;5096319;28;20484;-79
2023/10/15 09:55:36;;;;;;;4.72;1.00;;;;;;;14.43;100.00;100234.94;5064015;28;20028;-77
2023/10/15 09:58:06;;;;;;;5.05;1.27;;;;;;;14.30;100.00;100223.97;5094899;28;20027;-79
2023/10/15 10:01:09;;;;;;;6.53;1.70;;;;;;;14.29;100.00;100241.72;5108068;28;20040;-78
2023/10/15 10:03:57;;;;;;;5.50;1.38;;;;;;;14.22;100.00;100237.31;5084952;28;20071;-79
2023/10/15 10:06:49;;;;;;;7.65;2.22;;;;;;;14.11;99.48;100233.63;5115910;28;20051;-79
2023/10/15 10:09:17;;;;;;;8.82;2.00;;;;;;;13.96;98.93;100234.63;5115491;28;20036;-77
2023/10/15 10:12:16;;;;;;;4.00;1.20;;;;;;;13.74;98.02;100228.03;5115745;28;20027;-78
2023/10/15 10:14:50;;;;;;;9.35;1.88;;;;;;;13.64;100.00;100224.59;5115830;28;20541;-78
2023/10/15 10:17:20;;;;;;;7.30;1.15;;;;;;;13.59;100.00;100227.47;5096494;28;20376;-77
2023/10/15 10:19:56;;;;;;;6.03;1.10;;;;;;;13.45;100.00;100220.56;5060362;28;20032;-77
2023/10/15 10:22:26;;;;;;;5.93;1.25;;;;;;;13.29;100.00;100224.16;5077727;28;20031;-77
2023/10/15 10:24:53;;;;;;;5.35;1.27;;;;;;;13.19;100.00;100220.72;5076925;28;20028;-77
2023/10/15 10:27:19;;;;;;;8.13;1.60;;;;;;;13.20;100.00;100218.59;5076591;28;20023;-77
2023/10/15 10:29:58;;;;;;;9.70;1.65;;;;;;;13.11;100.00;100213.88;5059523;28;20052;-76
2023/10/15 10:32:23;;;;;;;7.47;1.33;;;;;;;13.02;100.00;100214.88;5077459;28;20047;-77
2023/10/15 10:35:18;;;;;;;7.25;1.33;;;;;;;12.98;100.00;100208.59;5076894;28;20388;-78
2023/10/15 10:38:12;;;;;;;6.15;1.20;;;;;;;12.95;100.00;100209.59;5076564;28;20032;-78
2023/10/15 10:41:07;;;;;;;7.20;1.00;;;;;;;13.00;100.00;100179.38;5094914;28;20047;-80
2023/10/15 10:43:38;;;;;;;3.22;0.80;;;;;;;13.31;100.00;100202.25;5094801;28;20407;-77
2023/10/15 10:46:22;;;;;;;6.15;0.93;;;;;;;13.49;100.00;100198.16;5059705;28;20047;-78
2023/10/15 10:49:05;;;;;;;4.82;1.17;;;;;;;13.60;100.00;100200.28;5076681;28;20547;-78
2023/10/15 10:51:33;;;;;;;5.32;1.27;;;;;;;13.61;100.00;100199.00;5094667;28;20020;-77
2023/10/15 10:54:03;;;;;;;4.00;1.20;;;;;;;13.47;100.00;100195.00;5094593;28;20052;-76
2023/10/15 10:57:06;;;;;;;8.75;2.90;;;;;;;13.35;100.00;100211.38;5094551;28;20039;-78
2023/10/15 10:59:32;;;;;;;7.97;1.13;;;;;;;13.28;100.00;100199.63;4995414;28;20528;-78
2023/10/15 11:02:00;;;;;;;6.18;1.42;;;;;;;13.39;100.00;100194.69;5011892;28;20118;-78
2023/10/15 11:04:25;;;;;;;5.50;1.40;;;;;;;13.53;100.00;100184.38;4995786;28;20145;-78
2023/10/15 11:06:51;;;;;;;3.88;1.00;;;;;;;13.60;100.00;100188.81;4996696;28;20042;-81
2023/10/15 11:09:22;;;;;;;5.65;1.30;;;;;;;13.51;100.00;100178.34;5015015;28;20044;-79
2023/10/15 11:11:53;;;;;;;4.20;1.25;;;;;;;13.65;100.00;100183.09;5099142;28;20056;-78
2023/10/15 11:14:23;;;;;;;4.13;1.30;;;;;;;13.62;100.00;100192.75;5085894;28;20177;-78
2023/10/15 11:16:49;;;;;;;3.83;2.05;;;;;;;13.63;100.00;100190.66;5081928;28;20085;-78
2023/10/15 11:19:21;;;;;;;9.43;1.65;;;;;;;13.57;100.00;100184.13;5082767;28;20047;-80
2023/10/15 11:21:48;;;;;;;4.63;1.20;;;;;;;13.49;100.00;100189.56;5098058;28;20434;-78
2023/10/15 11:24:14;;;;;;;8.10;2.15;;;;;;;13.39;100.00;100194.69;5094786;28;20063;-79
2023/10/15 11:26:49;;;;;;;5.45;1.30;;;;;;;13.31;100.00;100187.09;5077247;28;20036;-80
2023/10/15 11:29:20;;;;;;;8.45;1.30;;;;;;;13.22;100.00;100176.63;5094824;28;20024;-80
2023/10/15 11:31:55;;;;;;;2.50;0.85;;;;;;;13.07;100.00;100176.03;5061411;28;20393;-79
2023/10/15 11:34:22;;;;;;;4.40;0.68;;;;;;;12.94;100.00;100178.59;5060817;28;20032;-82
2023/10/15 11:37:05;;;;;;;9.10;1.25;;;;;;;12.89;100.00;100157.19;5076387;28;20035;-82
2023/10/15 11:39:47;;;;;;;4.95;0.90;;;;;;;12.99;100.00;100172.88;5076135;28;20024;-83
2023/10/15 11:42:14;;;;;;;6.72;1.67;;;;;;;13.10;100.00;100149.19;5093845;28;20085;-80
2023/10/15 11:44:55;;;;;;;2.72;0.80;;;;;;;13.26;100.00;100162.03;5075702;28;20036;-80
2023/10/15 11:47:24;;;;;;;5.50;1.70;;;;;;;13.39;100.00;100156.63;5080106;28;20035;-83
2023/10/15 11:50:06;;;;;;;10.40;1.25;;;;;;;13.43;100.00;100162.91;5102533;28;20109;-79
2023/10/15 11:52:44;;;;;;;6.70;2.13;;;;;;;13.49;100.00;100155.84;5092290;28;20123;-79
2023/10/15 11:55:19;;;;;;;5.88;1.15;;;;;;;13.50;100.00;100163.19;5084801;28;20040;-80
2023/10/15 11:57:54;;;;;;;1.92;0.80;;;;;;;13.57;100.00;100179.16;5092365;28;20051;-80
2023/10/15 12:00:31;;;;;;;9.60;1.10;;;;;;;13.54;100.00;100168.72;5065442;28;20055;-79
2023/10/15 12:03:00;;;;;;;7.60;1.48;;;;;;;13.31;100.00;100139.09;5051528;28;20028;-81
2023/10/15 12:05:51;;;;;;;9.85;1.25;;;;;;;13.48;100.00;100179.38;5061701;28;20089;-78